Time;durP1;ratioP1;P1;durP2;ratioP2;P2;SDS_P1;SDS_P2;PMS_P1;PMS_P2;Temp;Humidity;BMP_temperature;BMP_pressure;BME280_temperature;BME280_humidity;BME280_pressure;Samples;Min_cycle;Max_cycle;Signal;HPM_P1;HPM_P2
2022/10/05 00:01:51;;;;;;;8.68;4.60;;;;;;;9.04;85.46;98704.34;5063738;28;20975;-89
2022/10/05 00:04:25;;;;;;;7.22;4.30;;;;;;;9.13;85.78;98707.75;5055743;28;20048;-88
2022/10/05 00:07:05;;;;;;;5.20;4.22;;;;;;;9.19;85.41;98714.88;5060378;28;20041;-89
2022/10/05 00:09:36;;;;;;;7.78;4.50;;;;;;;9.08;85.87;98684.69;5065574;28;20082;-88
2022/10/05 00:12:16;;;;;;;6.28;4.05;;;;;;;9.19;85.18;98708.84;5075789;28;20064;-89
2022/10/05 00:14:46;;;;;;;5.43;4.13;;;;;;;9.04;84.94;98678.19;5066627;28;20542;-89
2022/10/05 00:17:21;;;;;;;5.90;4.03;;;;;;;9.08;84.95;98702.22;5053998;28;20053;-89
2022/10/05 00:19:53;;;;;;;5.40;4.20;;;;;;;9.02;85.85;98689.81;5039748;28;20143;-90
2022/10/05 00:22:30;;;;;;;6.63;4.35;;;;;;;9.17;85.56;98695.09;5072974;28;20035;-89
2022/10/05 00:25:24;;;;;;;4.68;3.65;;;;;;;9.27;85.18;98691.25;5068987;28;20055;-89
2022/10/05 00:28:00;;;;;;;7.13;4.32;;;;;;;9.37;85.10;98685.78;5071961;28;20067;-90
2022/10/05 00:30:32;;;;;;;6.57;4.13;;;;;;;9.31;84.44;98663.75;5054807;28;20561;-89
2022/10/05 00:33:03;;;;;;;6.80;4.40;;;;;;;9.36;84.16;98677.13;5057432;28;20052;-90
2022/10/05 00:35:46;;;;;;;;;;;;;;;;;;;;;
2022/10/05 00:38:19;;;;;;;6.10;3.85;;;;;;;9.60;84.14;98704.88;5073351;28;20381;-89
2022/10/05 00:40:52;;;;;;;6.45;3.45;;;;;;;9.65;83.86;98699.09;5057039;28;20044;-89
2022/10/05 00:44:38;;;;;;;4.95;3.75;;;;;;;9.67;83.49;98704.97;5068092;28;20067;-89
2022/10/05 00:47:34;;;;;;;5.38;3.72;;;;;;;9.68;83.12;98711.03;5051952;28;20048;-89
2022/10/05 00:51:01;;;;;;;5.93;3.72;;;;;;;9.54;83.51;98700.34;5067558;28;20110;-88
2022/10/05 00:54:13;;;;;;;4.97;4.18;;;;;;;9.56;83.44;98690.50;5038990;28;20051;-89
2022/10/05 00:57:33;;;;;;;4.70;3.80;;;;;;;9.72;83.34;98694.78;5047377;28;20051;-90
2022/10/05 01:00:12;;;;;;;4.97;3.67;;;;;;;9.62;82.84;98678.50;5051101;28;20045;-89
2022/10/05 01:03:02;;;;;;;5.90;3.72;;;;;;;9.54;82.91;98676.78;5074998;28;20044;-90
2022/10/05 01:06:00;;;;;;;4.63;4.18;;;;;;;9.62;82.53;98688.97;5051559;28;20053;-90
2022/10/05 01:08:50;;;;;;;6.63;3.80;;;;;;;9.64;82.71;98687.00;5043942;28;20041;-89
2022/10/05 01:11:29;;;;;;;7.00;3.70;;;;;;;9.59;82.54;98663.13;5068889;28;20050;-88
2022/10/05 01:14:18;;;;;;;9.57;4.13;;;;;;;9.27;82.65;98659.84;5072416;28;20048;-89
2022/10/05 01:17:10;;;;;;;7.47;3.92;;;;;;;9.00;84.01;98669.06;5073622;28;20534;-89
2022/10/05 01:20:38;;;;;;;7.80;4.05;;;;;;;9.09;84.85;98686.31;5061206;28;20045;-90
2022/10/05 01:23:40;;;;;;;5.68;4.28;;;;;;;9.00;85.33;98663.03;4957745;28;20039;-89
2022/10/05 01:26:34;;;;;;;8.38;4.28;;;;;;;9.24;84.37;98686.38;5072882;28;20403;-89
2022/10/05 01:29:31;;;;;;;5.18;3.83;;;;;;;9.29;84.15;98688.44;5056709;28;20128;-89
2022/10/05 01:32:29;;;;;;;6.00;3.55;;;;;;;9.15;83.83;98663.06;5036620;28;20041;-89
2022/10/05 01:35:51;;;;;;;;;;;;;;;;;;;;;
2022/10/05 01:38:36;;;;;;;6.97;4.20;;;;;;;9.16;83.68;98670.72;5028977;28;20528;-89
2022/10/05 01:41:26;;;;;;;5.95;4.10;;;;;;;9.23;83.83;98678.69;5059246;28;20426;-89
2022/10/05 01:44:14;;;;;;;7.80;4.38;;;;;;;9.08;83.48;98660.34;5066002;28;20060;-89
2022/10/05 01:47:03;;;;;;;6.78;4.35;;;;;;;9.09;83.23;98675.03;5068553;28;20044;-89
2022/10/05 01:49:57;;;;;;;7.20;4.80;;;;;;;9.13;83.55;98686.81;5036273;28;20110;-89
2022/10/05 01:53:07;;;;;;;5.90;3.70;;;;;;;9.26;83.37;98694.06;5050511;28;20036;-89
2022/10/05 01:56:17;;;;;;;4.50;3.63;;;;;;;9.28;83.72;98695.50;5042951;28;20438;-90
2022/10/05 01:59:01;;;;;;;5.93;4.05;;;;;;;9.13;83.39;98681.56;5058205;28;20442;-90
2022/10/05 02:01:51;;;;;;;6.05;3.70;;;;;;;9.11;82.95;98686.97;5054117;28;20047;-89
2022/10/05 02:04:32;;;;;;;5.70;3.97;;;;;;;9.24;83.42;98702.09;5068911;28;20048;-89
2022/10/05 02:07:43;;;;;;;5.30;4.05;;;;;;;9.04;83.45;98682.59;5069798;28;20311;-89
2022/10/05 02:10:24;;;;;;;6.03;3.97;;;;;;;9.07;83.48;98693.53;5070911;28;20040;-89
2022/10/05 02:13:03;;;;;;;5.18;4.03;;;;;;;9.10;83.56;98700.22;5068690;28;20658;-90
2022/10/05 02:15:41;;;;;;;7.45;3.67;;;;;;;9.02;83.57;98677.56;5053469;28;20048;-89
2022/10/05 02:18:25;;;;;;;7.40;4.38;;;;;;;9.02;84.18;98672.31;5070557;28;20098;-89
2022/10/05 02:21:01;;;;;;;5.90;3.72;;;;;;;8.97;83.75;98655.53;5069417;28;20044;-87
2022/10/05 02:23:33;;;;;;;8.70;4.47;;;;;;;8.76;84.11;98645.72;5052358;28;20041;-87
2022/10/05 02:26:00;;;;;;;6.30;4.28;;;;;;;8.82;84.62;98666.75;5073679;28;20094;-87
2022/10/05 02:28:38;;;;;;;6.78;4.47;;;;;;;8.79;85.05;98664.47;5069890;28;20780;-88
2022/10/05 02:31:36;;;;;;;5.47;4.38;;;;;;;8.60;85.30;98651.03;5056893;28;20040;-88
2022/10/05 02:34:22;;;;;;;5.53;4.00;;;;;;;8.73;85.68;98657.31;5066127;28;20056;-89
2022/10/05 02:37:34;;;;;;;5.88;4.00;;;;;;;8.51;85.07;98631.97;5040434;28;20099;-89
2022/10/05 02:40:44;;;;;;;5.82;4.22;;;;;;;8.74;84.90;98650.28;5046595;28;20090;-88
2022/10/05 02:43:22;;;;;;;5.75;4.22;;;;;;;8.79;84.58;98663.66;5069519;28;20131;-89
2022/10/05 02:46:35;;;;;;;4.47;3.88;;;;;;;8.76;84.40;98664.84;5069945;28;20048;-90
2022/10/05 02:49:56;;;;;;;5.05;4.00;;;;;;;8.66;83.53;98645.94;5068413;28;20048;-88
2022/10/05 02:52:58;;;;;;;4.68;3.75;;;;;;;8.63;84.03;98651.50;4994958;28;20091;-89
2022/10/05 02:56:13;;;;;;;8.55;4.22;;;;;;;8.64;83.92;98653.16;5058403;28;20442;-89
2022/10/05 02:58:56;;;;;;;7.05;4.18;;;;;;;8.44;84.27;98626.63;5017416;28;20053;-89
2022/10/05 03:01:52;;;;;;;5.75;4.18;;;;;;;8.73;84.38;98659.94;5054436;28;20048;-88
2022/10/05 03:04:51;;;;;;;5.32;3.88;;;;;;;8.78;83.99;98656.81;5070520;28;20044;-89
2022/10/05 03:08:17;;;;;;;6.38;4.15;;;;;;;8.54;84.09;98642.09;5062515;28;20041;-88
2022/10/05 03:11:13;;;;;;;5.78;3.72;;;;;;;8.65;84.15;98648.72;5069344;28;20548;-87
2022/10/05 03:14:08;;;;;;;7.15;3.70;;;;;;;8.52;84.63;98628.38;5085506;28;20553;-87
2022/10/05 03:17:11;;;;;;;6.30;4.53;;;;;;;8.48;84.69;98630.53;5040227;28;20072;-87
2022/10/05 03:19:59;;;;;;;5.68;3.75;;;;;;;8.58;84.80;98636.34;5030142;28;20411;-88
2022/10/05 03:22:43;;;;;;;7.97;4.38;;;;;;;8.56;85.22;98640.91;5044309;28;20040;-86
2022/10/05 03:25:27;;;;;;;5.80;4.07;;;;;;;8.58;84.99;98638.16;5052332;28;20044;-89
2022/10/05 03:28:34;;;;;;;6.63;3.92;;;;;;;8.62;85.22;98636.81;5069194;28;20048;-89
2022/10/05 03:31:38;;;;;;;6.80;4.32;;;;;;;8.63;84.51;98630.56;5050538;28;20530;-89
2022/10/05 03:34:30;;;;;;;6.18;3.80;;;;;;;8.53;84.20;98624.78;5072657;28;20047;-89
2022/10/05 03:37:26;;;;;;;5.05;4.10;;;;;;;8.53;83.98;98628.22;5064740;28;20491;-89
2022/10/05 03:41:02;;;;;;;12.88;4.20;;;;;;;8.57;83.35;98629.47;5071895;28;20067;-88
2022/10/05 03:43:48;;;;;;;6.18;4.30;;;;;;;8.51;83.50;98621.50;5051368;28;20603;-87
2022/10/05 03:46:24;;;;;;;7.13;3.97;;;;;;;8.41;83.43;98620.94;5073311;28;20515;-87
2022/10/05 03:49:30;;;;;;;6.15;4.47;;;;;;;8.37;83.75;98614.41;5074875;28;20082;-87
2022/10/05 03:52:21;;;;;;;5.60;3.90;;;;;;;8.15;84.57;98593.25;5074415;28;20123;-86
2022/10/05 03:55:13;;;;;;;5.35;4.20;;;;;;;8.12;84.53;98585.78;5048342;28;20060;-87
2022/10/05 03:57:45;;;;;;;7.07;4.50;;;;;;;8.22;84.81;98607.28;5065949;28;20127;-87
2022/10/05 04:00:21;;;;;;;5.55;4.50;;;;;;;8.19;84.82;98602.41;5062159;28;20547;-87
2022/10/05 04:02:55;;;;;;;8.00;4.57;;;;;;;8.28;85.62;98611.84;5037793;28;20103;-88
2022/10/05 04:05:51;;;;;;;8.93;4.70;;;;;;;8.21;85.71;98600.41;5050012;28;20123;-86
2022/10/05 04:08:47;;;;;;;6.10;4.47;;;;;;;8.28;85.71;98600.56;5048223;28;20045;-87
2022/10/05 04:11:35;;;;;;;6.07;4.30;;;;;;;8.21;85.52;98587.34;5044817;28;20082;-87
2022/10/05 04:14:15;;;;;;;5.93;3.97;;;;;;;8.42;85.73;98614.72;5057208;28;20799;-88
2022/10/05 04:16:56;;;;;;;7.65;4.40;;;;;;;8.42;85.07;98612.09;5050020;28;20047;-88
2022/10/05 04:20:00;;;;;;;8.63;4.50;;;;;;;8.43;85.24;98611.13;5065249;28;20661;-89
2022/10/05 04:22:40;;;;;;;6.18;4.25;;;;;;;8.29;85.26;98608.22;5049831;28;20124;-88
2022/10/05 04:25:21;;;;;;;8.75;4.30;;;;;;;8.37;85.28;98622.25;5064733;28;20527;-89
2022/10/05 04:28:10;;;;;;;5.28;3.92;;;;;;;8.27;85.80;98597.13;5065088;28;20116;-89
2022/10/05 04:30:43;;;;;;;4.95;4.22;;;;;;;8.34;85.40;98584.19;5051534;28;20655;-89
2022/10/05 04:33:12;;;;;;;6.63;4.05;;;;;;;8.50;84.86;98610.25;5048958;28;20540;-88
2022/10/05 04:36:13;;;;;;;5.70;4.32;;;;;;;8.61;84.61;98622.09;5053188;28;20051;-89
2022/10/05 04:38:43;;;;;;;6.65;4.57;;;;;;;8.65;84.23;98612.94;5031435;28;20045;-88
2022/10/05 04:42:00;;;;;;;8.10;4.07;;;;;;;8.60;84.21;98617.88;5040599;28;20036;-88
2022/10/05 04:44:44;;;;;;;6.63;4.03;;;;;;;8.66;84.38;98645.94;5066747;28;20478;-87
2022/10/05 04:47:38;;;;;;;6.75;4.40;;;;;;;8.71;83.90;98646.22;5061394;28;20052;-87
2022/10/05 04:50:30;;;;;;;8.55;4.28;;;;;;;8.52;83.78;98623.16;5051347;28;20044;-87
2022/10/05 04:53:23;;;;;;;;;;;;;;;8.71;84.09;98643.63;5054719;28;20060;-87
2022/10/05 04:55:59;;;;;;;7.07;4.30;;;;;;;8.73;83.77;98630.34;5053871;28;20006;-88
2022/10/05 04:59:30;;;;;;;5.55;4.05;;;;;;;8.74;83.85;98627.56;5086451;28;20068;-88
2022/10/05 05:02:19;;;;;;;6.93;4.30;;;;;;;8.55;83.41;98601.88;5040919;28;20115;-88
2022/10/05 05:05:17;;;;;;;;;;;;;;;8.71;83.53;98624.50;5033620;28;20390;-88
2022/10/05 05:08:10;;;;;;;6.75;4.68;;;;;;;8.46;83.55;98616.81;5062288;28;19920;-88
2022/10/05 05:11:21;;;;;;;5.88;4.32;;;;;;;8.38;83.22;98618.66;5053858;28;20045;-87
2022/10/05 05:14:45;;;;;;;5.72;4.10;;;;;;;8.38;84.38;98611.63;5054662;28;20108;-88
2022/10/05 05:17:25;;;;;;;8.75;4.50;;;;;;;8.51;84.04;98624.94;5024352;28;20552;-88
2022/10/05 05:20:40;;;;;;;6.90;4.47;;;;;;;8.34;83.85;98620.78;5055634;28;20492;-87
2022/10/05 05:23:29;;;;;;;9.37;5.33;;;;;;;8.31;84.60;98629.78;5052600;28;20615;-87
2022/10/05 05:26:33;;;;;;;5.82;4.75;;;;;;;8.25;85.23;98627.84;5045845;28;20048;-90
2022/10/05 05:29:40;;;;;;;8.27;4.78;;;;;;;8.20;85.92;98630.16;5038218;28;20404;-89
2022/10/05 05:33:00;;;;;;;7.53;4.85;;;;;;;7.87;86.06;98623.47;5031716;28;20049;-89
2022/10/05 05:36:03;;;;;;;8.85;4.85;;;;;;;8.02;86.27;98638.22;5037577;28;20500;-89
2022/10/05 05:38:40;;;;;;;7.07;4.40;;;;;;;7.94;85.62;98611.34;5052195;28;20099;-88
2022/10/05 05:41:33;;;;;;;7.32;4.85;;;;;;;8.25;85.14;98648.75;5032376;28;20060;-88
2022/10/05 05:44:22;;;;;;;6.53;5.20;;;;;;;8.37;85.15;98651.00;5023939;28;20051;-88
2022/10/05 05:47:03;;;;;;;6.00;4.82;;;;;;;8.24;84.43;98636.69;5046650;28;20421;-87
2022/10/05 05:50:13;;;;;;;;;;;;;;;;;;;;;
2022/10/05 05:52:58;;;;;;;7.80;4.65;;;;;;;8.41;83.31;98647.06;5043473;28;20060;-88
2022/10/05 05:55:41;;;;;;;10.38;5.20;;;;;;;8.31;83.62;98632.38;5014643;28;20084;-88
2022/10/05 05:58:26;;;;;;;7.35;4.95;;;;;;;8.41;83.26;98657.53;5019481;28;20048;-89
2022/10/05 06:01:08;;;;;;;6.55;5.22;;;;;;;8.37;84.17;98651.00;5057464;28;20114;-86
2022/10/05 06:04:23;;;;;;;7.72;5.18;;;;;;;8.30;84.16;98648.25;5060460;28;20404;-86
2022/10/05 06:06:55;;;;;;;7.05;4.93;;;;;;;8.26;84.82;98644.34;5075253;28;20052;-87
2022/10/05 06:09:26;;;;;;;8.93;5.60;;;;;;;8.29;84.88;98646.63;5069239;28;20053;-88
2022/10/05 06:12:01;;;;;;;8.93;5.47;;;;;;;8.37;85.39;98667.50;5048166;28;20135;-86
2022/10/05 06:14:49;;;;;;;6.45;5.13;;;;;;;8.35;86.02;98659.00;5058290;28;20118;-86
2022/10/05 06:17:36;;;;;;;8.55;5.30;;;;;;;8.21;86.50;98655.28;5067059;28;20032;-86
2022/10/05 06:20:50;;;;;;;10.05;5.10;;;;;;;8.18;87.11;98684.38;5054132;28;20139;-87
2022/10/05 06:23:48;;;;;;;11.90;7.40;;;;;;;8.12;86.12;98672.00;5068578;28;20045;-86
2022/10/05 06:27:05;;;;;;;10.65;6.40;;;;;;;8.45;86.94;98695.41;5069708;28;20040;-88
2022/10/05 06:29:52;;;;;;;7.07;5.70;;;;;;;8.54;86.18;98686.53;5068560;28;20110;-87
2022/10/05 06:32:53;;;;;;;11.48;5.85;;;;;;;8.88;85.34;98706.28;5067023;28;20044;-87
2022/10/05 06:35:50;;;;;;;7.07;5.32;;;;;;;9.13;85.44;98702.50;5035410;28;20068;-88
2022/10/05 06:39:12;;;;;;;8.25;5.40;;;;;;;9.21;84.83;98681.50;5045360;28;20370;-87
2022/10/05 06:42:05;;;;;;;9.25;5.57;;;;;;;9.43;83.73;98695.53;5051393;28;20451;-87
2022/10/05 06:44:59;;;;;;;8.38;6.03;;;;;;;9.49;83.04;98699.25;5065571;28;20047;-88
2022/10/05 06:47:56;;;;;;;9.07;5.82;;;;;;;9.47;82.59;98688.94;5055642;28;20048;-88
2022/10/05 06:50:41;;;;;;;13.15;6.07;;;;;;;9.71;82.78;98708.84;5068550;28;20090;-88
2022/10/05 06:53:51;;;;;;;10.88;6.03;;;;;;;9.75;82.40;98704.88;5061650;28;20033;-88
2022/10/05 06:56:45;;;;;;;9.82;6.05;;;;;;;9.77;82.52;98709.94;5054653;28;20706;-88
2022/10/05 06:59:31;;;;;;;10.27;5.85;;;;;;;9.82;83.36;98700.56;5039730;28;20135;-88
2022/10/05 07:02:28;;;;;;;10.27;6.63;;;;;;;9.81;82.93;98704.16;5067498;28;20087;-89
2022/10/05 07:05:29;;;;;;;10.55;6.22;;;;;;;9.85;82.66;98705.44;5053341;28;20119;-87
2022/10/05 07:08:03;;;;;;;9.85;5.97;;;;;;;9.86;83.12;98688.72;5048752;28;20506;-87
2022/10/05 07:10:53;;;;;;;7.60;6.50;;;;;;;10.05;82.83;98713.56;5069818;28;20393;-89
2022/10/05 07:13:51;;;;;;;9.25;6.03;;;;;;;10.13;83.17;98718.72;5050370;28;20057;-87
2022/10/05 07:16:41;;;;;;;8.60;6.10;;;;;;;10.26;82.88;98712.09;5051977;28;20040;-89
2022/10/05 07:19:35;;;;;;;9.77;6.43;;;;;;;10.29;82.70;98701.22;5065887;28;20468;-87
2022/10/05 07:22:37;;;;;;;9.40;6.05;;;;;;;10.49;82.47;98717.19;5077344;28;20095;-89
2022/10/05 07:25:47;;;;;;;10.38;6.38;;;;;;;10.66;81.75;98713.34;5058023;28;20044;-88
2022/10/05 07:28:36;;;;;;;8.00;6.03;;;;;;;10.77;80.88;98706.81;5070521;28;20416;-88
2022/10/05 07:31:30;;;;;;;9.48;6.18;;;;;;;10.99;80.97;98722.41;5039440;28;20040;-89
2022/10/05 07:34:29;;;;;;;10.25;6.53;;;;;;;11.14;80.73;98727.56;5068176;28;20066;-87
2022/10/05 07:40:39;;;;;;;8.82;6.75;;;;;;;11.53;80.56;98723.69;5064930;28;20131;-90
2022/10/05 07:43:32;;;;;;;9.48;6.32;;;;;;;11.80;79.98;98716.78;5048014;28;20047;-90
2022/10/05 07:46:50;;;;;;;9.40;6.35;;;;;;;11.99;78.44;98728.47;5018071;28;20045;-89
2022/10/05 07:49:58;;;;;;;9.95;6.80;;;;;;;12.01;78.54;98729.09;5036515;28;20029;-89
2022/10/05 07:52:44;;;;;;;10.35;7.15;;;;;;;11.97;78.46;98723.41;5047611;28;20067;-89
2022/10/05 07:55:28;;;;;;;10.35;6.82;;;;;;;11.96;78.67;98721.78;5064192;28;20040;-90
2022/10/05 07:58:28;;;;;;;9.98;7.13;;;;;;;12.11;78.95;98740.06;5061683;28;20441;-89
2022/10/05 08:01:04;;;;;;;8.95;6.57;;;;;;;12.07;78.89;98730.97;5055554;28;20087;-88
2022/10/05 08:04:35;;;;;;;10.18;6.80;;;;;;;12.31;78.86;98745.44;5062328;28;20099;-89
2022/10/05 08:07:17;;;;;;;9.55;7.10;;;;;;;12.29;78.50;98716.72;5046190;28;20072;-89
2022/10/05 08:10:17;;;;;;;12.32;7.35;;;;;;;12.50;77.81;98734.19;5071895;28;20629;-90
2022/10/05 08:13:22;;;;;;;9.68;7.30;;;;;;;12.67;78.03;98733.88;5072594;28;20040;-89
2022/10/05 08:15:58;;;;;;;11.07;6.72;;;;;;;12.65;77.44;98710.34;5022527;28;20064;-89
2022/10/05 08:19:07;;;;;;;11.30;7.60;;;;;;;12.91;77.40;98730.69;5053341;28;20127;-89
2022/10/05 08:22:03;;;;;;;11.00;7.53;;;;;;;13.02;76.49;98721.41;5039282;28;20050;-88
2022/10/05 08:24:48;;;;;;;10.93;7.80;;;;;;;13.05;76.04;98710.47;5066772;28;20098;-89
2022/10/05 08:27:57;;;;;;;10.00;7.43;;;;;;;13.11;76.03;98705.22;5059787;28;20063;-89
2022/10/05 08:30:56;;;;;;;11.45;7.75;;;;;;;13.30;75.48;98714.16;5067246;28;20059;-89
2022/10/05 08:33:58;;;;;;;9.95;7.32;;;;;;;13.49;75.35;98728.34;5055197;28;20506;-90
2022/10/05 08:37:01;;;;;;;11.00;7.57;;;;;;;13.66;75.37;98726.94;5067274;28;20044;-90
2022/10/05 08:39:54;;;;;;;10.50;9.07;;;;;;;13.91;75.59;98726.28;5035459;28;20069;-90
2022/10/05 08:43:01;;;;;;;9.50;7.45;;;;;;;14.10;74.55;98729.94;5064320;28;20044;-88
2022/10/05 08:46:02;;;;;;;10.27;6.97;;;;;;;14.26;73.48;98720.75;5093145;28;20047;-88
2022/10/05 08:49:07;;;;;;;10.82;7.07;;;;;;;14.43;72.90;98727.19;5075773;28;20047;-89
2022/10/05 08:52:16;;;;;;;9.88;6.72;;;;;;;14.54;71.65;98716.00;5063992;28;20102;-90
2022/10/05 08:56:02;;;;;;;10.07;7.40;;;;;;;14.62;71.72;98718.41;5054181;28;20080;-88
2022/10/05 08:59:18;;;;;;;13.07;7.30;;;;;;;14.49;71.83;98697.34;5059556;28;20033;-89
2022/10/05 09:02:50;;;;;;;10.18;7.07;;;;;;;14.67;71.32;98702.75;5035739;28;20052;-90
2022/10/05 09:05:42;;;;;;;12.13;8.40;;;;;;;14.64;71.78;98711.09;5049694;28;20036;-89
2022/10/05 09:09:04;;;;;;;11.40;7.95;;;;;;;14.76;72.60;98711.25;5070558;28;20045;-91
2022/10/05 09:12:04;;;;;;;10.65;7.70;;;;;;;14.85;72.10;98707.31;5070751;28;20241;-89
2022/10/05 09:15:19;;;;;;;10.60;7.65;;;;;;;14.93;72.27;98693.03;5050592;28;20140;-91
2022/10/05 09:18:23;;;;;;;12.98;7.85;;;;;;;15.07;70.82;98704.34;5049271;28;20055;-90
2022/10/05 09:22:05;;;;;;;11.10;7.50;;;;;;;15.27;71.16;98708.47;5062101;28;20510;-90
2022/10/05 09:24:55;;;;;;;10.20;7.38;;;;;;;15.20;70.61;98683.94;5055968;28;20498;-90
2022/10/05 09:28:04;;;;;;;11.75;7.22;;;;;;;15.35;70.29;98688.06;5060069;28;20102;-89
2022/10/05 09:34:56;;;;;;;12.63;8.00;;;;;;;15.65;70.84;98699.66;5042058;28;20052;-90
2022/10/05 09:38:07;;;;;;;9.70;7.57;;;;;;;15.77;69.84;98697.09;5070122;28;20033;-89
2022/10/05 09:41:07;;;;;;;12.77;8.32;;;;;;;15.84;69.98;98699.69;5065063;28;20139;-89
2022/10/05 09:44:22;;;;;;;10.82;7.13;;;;;;;15.72;69.49;98681.09;5057477;28;20041;-90
2022/10/05 09:47:30;;;;;;;10.07;7.80;;;;;;;15.95;69.81;98698.94;5045039;28;20045;-88
2022/10/05 09:50:21;;;;;;;12.07;7.55;;;;;;;16.16;69.41;98687.94;5055151;28;20442;-90
2022/10/05 09:54:15;;;;;;;10.70;7.38;;;;;;;16.29;69.54;98693.09;5058503;28;20523;-90
2022/10/05 09:57:18;;;;;;;10.65;7.70;;;;;;;16.16;69.33;98682.66;5030973;28;20044;-89
2022/10/05 10:00:33;;;;;;;12.13;7.90;;;;;;;16.18;69.32;98690.38;5057283;28;20041;-88
2022/10/05 10:04:24;;;;;;;11.43;7.57;;;;;;;16.38;69.85;98679.56;5069721;28;20105;-89
2022/10/05 10:07:39;;;;;;;14.10;7.35;;;;;;;16.56;68.09;98658.34;5067655;28;20127;-88
2022/10/05 10:10:55;;;;;;;8.00;6.55;;;;;;;16.77;67.49;98663.16;5035701;28;20044;-90
2022/10/05 10:13:55;;;;;;;8.93;6.60;;;;;;;16.93;67.83;98676.81;5051436;28;20056;-89
2022/10/05 10:16:40;;;;;;;11.35;7.30;;;;;;;17.13;67.13;98682.59;5071274;28;20040;-90
2022/10/05 10:20:08;;;;;;;9.95;7.20;;;;;;;17.23;67.08;98666.16;5057847;28;20045;-89
2022/10/05 10:23:17;;;;;;;9.18;7.28;;;;;;;17.13;66.38;98662.22;5051413;28;20610;-89
2022/10/05 10:26:34;;;;;;;8.85;6.85;;;;;;;17.22;68.70;98678.59;5052614;28;20048;-90
2022/10/05 10:29:42;;;;;;;11.68;8.18;;;;;;;17.33;65.51;98682.28;5044483;28;20074;-89
2022/10/05 10:33:10;;;;;;;8.35;6.53;;;;;;;17.57;66.37;98672.50;5069967;28;20426;-89
2022/10/05 10:36:16;;;;;;;7.85;6.32;;;;;;;17.62;66.95;98664.66;5067089;28;20048;-88
2022/10/05 10:39:24;;;;;;;11.20;7.35;;;;;;;17.89;65.96;98663.19;5036291;28;20131;-90
2022/10/05 10:42:24;;;;;;;8.85;6.75;;;;;;;17.88;65.66;98664.25;5051703;28;20483;-88
2022/10/05 10:45:15;;;;;;;6.72;6.03;;;;;;;17.95;66.58;98642.09;5070353;28;20048;-89
2022/10/05 10:48:08;;;;;;;7.10;6.20;;;;;;;18.11;64.99;98652.78;5071995;28;20510;-90
2022/10/05 10:50:59;;;;;;;7.78;6.47;;;;;;;18.18;65.05;98663.25;5047778;28;20033;-90
2022/10/05 10:54:11;;;;;;;7.72;5.47;;;;;;;18.13;65.98;98649.88;5045452;28;20035;-91
2022/10/05 10:57:14;;;;;;;9.68;6.45;;;;;;;18.25;64.46;98658.63;5064822;28;20075;-90
2022/10/05 11:00:26;;;;;;;7.35;5.75;;;;;;;18.28;64.98;98663.44;5042208;28;20055;-90
2022/10/05 11:03:29;;;;;;;8.10;6.45;;;;;;;18.23;65.11;98660.69;5048694;28;20060;-88
2022/10/05 11:06:37;;;;;;;8.35;6.93;;;;;;;18.33;65.32;98644.97;5052893;28;20052;-90
2022/10/05 11:09:35;;;;;;;7.63;6.20;;;;;;;18.39;65.84;98638.72;5068025;28;20040;-90
2022/10/05 11:12:37;;;;;;;7.45;5.57;;;;;;;18.48;64.51;98638.34;5045576;28;20108;-88
2022/10/05 11:16:05;;;;;;;6.80;5.78;;;;;;;18.44;65.56;98630.03;5068504;28;20040;-91
2022/10/05 11:19:50;;;;;;;10.35;6.07;;;;;;;18.43;64.81;98613.31;5050562;28;20036;-90
2022/10/05 11:23:57;;;;;;;6.90;6.13;;;;;;;18.71;65.22;98635.59;5067398;28;20170;-89
2022/10/05 11:26:55;;;;;;;9.13;7.15;;;;;;;18.59;63.37;98626.84;4987588;28;20046;-89
2022/10/05 11:30:05;;;;;;;6.15;5.25;;;;;;;18.69;65.06;98608.47;4989477;28;20056;-90
2022/10/05 11:33:34;;;;;;;7.13;5.35;;;;;;;18.94;66.85;98616.06;5057325;28;20123;-89
2022/10/05 11:36:39;;;;;;;7.15;5.35;;;;;;;19.07;64.76;98617.59;5064119;28;20052;-90
2022/10/05 11:39:42;;;;;;;6.38;5.72;;;;;;;19.01;64.00;98607.94;5081110;28;20525;-91
2022/10/05 11:43:06;;;;;;;6.85;5.75;;;;;;;19.11;63.00;98610.75;5073021;28;20058;-89
2022/10/05 11:46:04;;;;;;;8.07;5.00;;;;;;;19.08;64.99;98598.75;5045848;28;20052;-91
2022/10/05 11:49:42;;;;;;;6.47;5.15;;;;;;;19.12;65.37;98610.50;5072312;28;20090;-90
2022/10/05 11:52:35;;;;;;;6.05;4.57;;;;;;;19.23;64.39;98600.84;5027321;28;20052;-89
2022/10/05 11:56:28;;;;;;;6.95;5.20;;;;;;;19.22;65.39;98594.72;5012214;28;20522;-89
2022/10/05 11:59:33;;;;;;;6.40;4.57;;;;;;;19.25;64.18;98601.38;5004182;28;20057;-91
2022/10/05 12:02:51;;;;;;;5.05;4.55;;;;;;;19.18;63.50;98582.16;4996526;28;20065;-90
2022/10/05 12:06:10;;;;;;;5.60;4.43;;;;;;;19.16;63.33;98589.56;4989198;28;20495;-90
2022/10/05 12:09:02;;;;;;;5.80;4.43;;;;;;;19.30;62.92;98584.72;5001623;28;20056;-90
2022/10/05 12:12:13;;;;;;;6.05;4.32;;;;;;;19.29;62.22;98583.91;5022985;28;20060;-90
2022/10/05 12:14:53;;;;;;;5.15;4.30;;;;;;;19.38;64.13;98574.47;5071485;28;20044;-89
2022/10/05 12:17:59;;;;;;;5.53;4.50;;;;;;;19.55;62.25;98569.09;5058352;28;20415;-90
2022/10/05 12:20:45;;;;;;;4.75;4.15;;;;;;;19.66;62.87;98570.06;5065525;28;20036;-89
2022/10/05 12:23:41;;;;;;;5.38;4.25;;;;;;;19.75;62.73;98566.75;5056140;28;20135;-90
2022/10/05 12:26:38;;;;;;;4.95;4.25;;;;;;;19.72;62.79;98574.41;5044955;28;20070;-91
2022/10/05 12:30:06;;;;;;;4.55;3.80;;;;;;;19.89;61.31;98575.16;5069554;28;20040;-90
2022/10/05 12:33:02;;;;;;;4.60;3.67;;;;;;;19.92;60.68;98566.69;5025359;28;20048;-90
2022/10/05 12:36:04;;;;;;;4.43;4.03;;;;;;;20.14;58.97;98589.81;5082776;28;20028;-90
2022/10/05 12:39:07;;;;;;;4.97;3.70;;;;;;;20.07;59.52;98599.84;5039076;28;20037;-90
2022/10/05 12:42:24;;;;;;;4.13;3.60;;;;;;;19.99;61.07;98587.78;5054459;28;20071;-91
2022/10/05 12:45:15;;;;;;;4.10;3.70;;;;;;;20.04;59.18;98593.97;5075781;28;20044;-90
2022/10/05 12:48:20;;;;;;;7.68;3.10;;;;;;;20.00;61.68;98590.19;5069592;28;20048;-89
2022/10/05 12:51:06;;;;;;;5.93;4.07;;;;;;;19.89;61.13;98575.16;5074481;28;20071;-90
2022/10/05 12:53:54;;;;;;;5.85;3.70;;;;;;;19.87;59.31;98579.13;5074587;28;20040;-90
2022/10/05 12:56:44;;;;;;;3.58;3.28;;;;;;;19.96;60.72;98591.75;5076409;28;20036;-91
2022/10/05 12:59:56;;;;;;;4.28;3.28;;;;;;;19.75;60.21;98561.44;5071152;28;20062;-88
2022/10/05 13:02:45;;;;;;;5.50;3.65;;;;;;;19.80;61.14;98576.66;5036060;28;20430;-91
2022/10/05 13:05:28;;;;;;;3.60;3.30;;;;;;;19.84;59.92;98590.25;5052620;28;20090;-88
2022/10/05 13:09:10;;;;;;;4.13;3.10;;;;;;;20.01;60.85;98573.16;5073340;28;20051;-89
2022/10/05 13:11:56;;;;;;;3.80;3.10;;;;;;;20.16;61.85;98563.75;5003505;28;20048;-91
2022/10/05 13:14:57;;;;;;;4.20;3.72;;;;;;;20.32;59.74;98582.28;5068172;28;20073;-89
2022/10/05 13:17:44;;;;;;;3.72;3.10;;;;;;;20.21;58.41;98561.13;5053645;28;20106;-91
2022/10/05 13:21:03;;;;;;;5.70;3.50;;;;;;;20.47;60.39;98557.72;5038168;28;20139;-90
2022/10/05 13:24:29;;;;;;;5.40;3.35;;;;;;;20.66;58.75;98560.00;5043500;28;20394;-90
2022/10/05 13:27:43;;;;;;;3.55;3.25;;;;;;;20.57;57.51;98554.31;5037463;28;20145;-90
2022/10/05 13:30:23;;;;;;;3.63;2.75;;;;;;;20.61;58.49;98563.41;5064708;28;20044;-90
2022/10/05 13:33:48;;;;;;;4.53;3.35;;;;;;;20.70;58.60;98540.59;5061127;28;20685;-90
2022/10/05 13:37:07;;;;;;;3.30;3.00;;;;;;;20.97;58.15;98555.72;5060984;28;20048;-90
2022/10/05 13:40:13;;;;;;;4.43;3.13;;;;;;;21.06;56.31;98548.84;5038953;28;20048;-90
2022/10/05 13:43:45;;;;;;;3.38;3.08;;;;;;;21.16;56.06;98548.91;5054051;28;20051;-91
2022/10/05 13:46:54;;;;;;;3.65;2.90;;;;;;;21.41;56.84;98542.97;5046130;28;20056;-91
2022/10/05 13:50:01;;;;;;;3.42;3.08;;;;;;;21.55;54.07;98557.44;5027641;28;20040;-91
2022/10/05 13:52:53;;;;;;;3.35;3.05;;;;;;;21.57;55.09;98552.63;5041735;28;20058;-90
2022/10/05 13:56:04;;;;;;;3.60;3.30;;;;;;;21.40;54.96;98540.53;5068260;28;20083;-90
2022/10/05 13:58:48;;;;;;;3.22;2.92;;;;;;;21.92;55.20;98545.84;5056809;28;20044;-91
2022/10/05 14:01:33;;;;;;;3.85;3.05;;;;;;;22.24;54.35;98552.91;5045751;28;21039;-90
2022/10/05 14:04:23;;;;;;;3.95;2.90;;;;;;;22.55;54.51;98535.03;5062212;28;20048;-91
2022/10/05 14:06:55;;;;;;;4.10;2.70;;;;;;;22.51;55.07;98529.44;5056064;28;20131;-91
2022/10/05 14:09:35;;;;;;;3.00;2.70;;;;;;;22.63;53.24;98513.94;5059441;28;20698;-90
2022/10/05 14:12:22;;;;;;;3.38;2.90;;;;;;;22.21;52.74;98524.84;5053258;28;20053;-90
2022/10/05 14:14:57;;;;;;;7.32;2.85;;;;;;;22.30;55.88;98541.16;5049804;28;20033;-89
2022/10/05 14:17:38;;;;;;;4.10;2.83;;;;;;;22.18;53.13;98538.72;5020682;28;20401;-90